PWSweather.com
Personal Weather Stations
Station Observations
NCOUTPOST
Sheer Clifftop Utah Mountain, Waynesville, NC 28785

Sheer Clifftop Utah MountainWaynesville, NC 28785

Lat: 35.548, Lon: -82.982

Elevation: 3500

Station Type: Davis VUE 6250

Latest ConditionsUpdated 4:13:07 AM EDT Sunday, Aug 31, 2014
Currently Today's Max Today's Min Today's Average
Temperature 65.0°F18.3°C 70.6°F21.4°C 65.0°F18.3°C 67.4°F19.7°C
Dew Point 64.4°F18.0°C 66.9°F19.4°C 64.3°F17.9°C 65.3°F18.5°C
Winds Calm Calm 5.0 mph ESE8.0 kmh ESE - 0.4 mph 0.6 kmh
Wind Gusts 1.0 mph1.6 kmh 5.0 mph8.0 kmh - -
Humidity 98% 98% 85% 93%
Pressure 29.98 in1015.2 mb 30.01 in1016.3 mb 29.98 in1015.2 mb -
Hour Temp Dew Point Humidity Winds Wind Gusts Pressure Precip Precip Rate Daily Precip Total
04:13 AM 65.0°F18.3°C 64.4°F18.0°C 98% Calm Calm 1.0 mph1.6 kmh 29.98 in1015.2 mb 0.29 in7.4 mm 0.00 in/hr0.0 mm/hr 0.77 in19.6 mm
04:12 AM 65.0°F18.3°C 64.4°F18.0°C 98% Calm Calm 1.0 mph1.6 kmh 29.98 in1015.2 mb 0.29 in7.4 mm 0.00 in/hr0.0 mm/hr 0.77 in19.6 mm
04:11 AM 65.0°F18.3°C 64.4°F18.0°C 98% Calm Calm 1.0 mph1.6 kmh 29.98 in1015.2 mb 0.29 in7.4 mm 0.00 in/hr0.0 mm/hr 0.77 in19.6 mm
04:10 AM 65.0°F18.3°C 64.4°F18.0°C 98% Calm Calm 1.0 mph1.6 kmh 29.98 in1015.2 mb 0.29 in7.4 mm 0.60 in/hr15.2 mm/hr 0.77 in19.6 mm
04:09 AM 65.0°F18.3°C 64.4°F18.0°C 98% Calm Calm 1.0 mph1.6 kmh 29.99 in1015.6 mb 0.28 in7.1 mm 0.00 in/hr0.0 mm/hr 0.76 in19.3 mm
04:08 AM 65.0°F18.3°C 64.4°F18.0°C 98% Calm Calm 1.0 mph1.6 kmh 29.98 in1015.2 mb 0.28 in7.1 mm 0.00 in/hr0.0 mm/hr 0.76 in19.3 mm
04:07 AM 65.0°F18.3°C 64.4°F18.0°C 98% Calm Calm 1.0 mph1.6 kmh 29.99 in1015.6 mb 0.28 in7.1 mm 0.60 in/hr15.2 mm/hr 0.76 in19.3 mm
04:06 AM 65.0°F18.3°C 64.4°F18.0°C 98% Calm Calm 1.0 mph1.6 kmh 29.98 in1015.2 mb 0.27 in6.9 mm 0.00 in/hr0.0 mm/hr 0.75 in19.1 mm
04:05 AM 65.0°F18.3°C 64.4°F18.0°C 98% Calm Calm 1.0 mph1.6 kmh 29.99 in1015.6 mb 0.27 in6.9 mm 0.00 in/hr0.0 mm/hr 0.75 in19.1 mm
04:04 AM 65.0°F18.3°C 64.4°F18.0°C 98% Calm Calm 1.0 mph1.6 kmh 29.99 in1015.6 mb 0.27 in6.9 mm 0.00 in/hr0.0 mm/hr 0.75 in19.1 mm
04:03 AM 65.0°F18.3°C 64.4°F18.0°C 98% 1.0 mph SE1.6 kmh SE 1.0 mph1.6 kmh 29.98 in1015.2 mb 0.27 in6.9 mm 0.60 in/hr15.2 mm/hr 0.75 in19.1 mm
04:02 AM 65.0°F18.3°C 64.4°F18.0°C 98% Calm Calm -- 29.99 in1015.6 mb 0.26 in6.6 mm 0.00 in/hr0.0 mm/hr 0.74 in18.8 mm
04:00 AM 65.0°F18.3°C 64.4°F18.0°C 98% Calm Calm 1.0 mph1.6 kmh 29.99 in1015.6 mb 0.40 in10.2 mm 0.00 in/hr0.0 mm/hr 0.74 in18.8 mm
03:59 AM 65.0°F18.3°C 64.4°F18.0°C 98% Calm Calm 1.0 mph1.6 kmh 29.99 in1015.6 mb 0.40 in10.2 mm 0.60 in/hr15.2 mm/hr 0.74 in18.8 mm
03:58 AM 65.0°F18.3°C 64.4°F18.0°C 98% Calm Calm 1.0 mph1.6 kmh 29.99 in1015.6 mb 0.39 in9.9 mm 0.60 in/hr15.2 mm/hr 0.73 in18.5 mm
03:57 AM 65.0°F18.3°C 64.4°F18.0°C 98% Calm Calm 1.0 mph1.6 kmh 29.99 in1015.6 mb 0.38 in9.7 mm 0.00 in/hr0.0 mm/hr 0.72 in18.3 mm
03:56 AM 65.0°F18.3°C 64.4°F18.0°C 98% Calm Calm 1.0 mph1.6 kmh 29.98 in1015.2 mb 0.38 in9.7 mm 0.60 in/hr15.2 mm/hr 0.72 in18.3 mm
03:55 AM 65.0°F18.3°C 64.4°F18.0°C 98% Calm Calm 1.0 mph1.6 kmh 29.98 in1015.2 mb 0.37 in9.4 mm 0.00 in/hr0.0 mm/hr 0.71 in18.0 mm
03:54 AM 65.0°F18.3°C 64.4°F18.0°C 98% 1.0 mph SE1.6 kmh SE 1.0 mph1.6 kmh 29.98 in1015.2 mb 0.37 in9.4 mm 0.60 in/hr15.2 mm/hr 0.71 in18.0 mm
03:53 AM 65.1°F18.4°C 64.5°F18.1°C 98% 1.0 mph SE1.6 kmh SE 1.0 mph1.6 kmh 29.98 in1015.2 mb 0.36 in9.1 mm 0.60 in/hr15.2 mm/hr 0.70 in17.8 mm
03:52 AM 65.1°F18.4°C 64.5°F18.1°C 98% Calm Calm 1.0 mph1.6 kmh 29.98 in1015.2 mb 0.35 in8.9 mm 0.60 in/hr15.2 mm/hr 0.69 in17.5 mm
03:51 AM 65.1°F18.4°C 64.5°F18.1°C 98% Calm Calm 1.0 mph1.6 kmh 29.98 in1015.2 mb 0.34 in8.6 mm 0.60 in/hr15.2 mm/hr 0.68 in17.3 mm
03:50 AM 65.2°F18.4°C 64.6°F18.1°C 98% Calm Calm 1.0 mph1.6 kmh 29.98 in1015.2 mb 0.33 in8.4 mm 0.60 in/hr15.2 mm/hr 0.67 in17.0 mm
03:49 AM 65.2°F18.4°C 64.6°F18.1°C 98% Calm Calm 1.0 mph1.6 kmh 29.98 in1015.2 mb 0.32 in8.1 mm 0.00 in/hr0.0 mm/hr 0.66 in16.8 mm
03:48 AM 65.3°F18.5°C 64.7°F18.2°C 98% 1.0 mph SE1.6 kmh SE 1.0 mph1.6 kmh 29.98 in1015.2 mb 0.32 in8.1 mm 0.60 in/hr15.2 mm/hr 0.66 in16.8 mm
03:47 AM 65.3°F18.5°C 64.7°F18.2°C 98% Calm Calm 1.0 mph1.6 kmh 29.98 in1015.2 mb 0.31 in7.9 mm 0.00 in/hr0.0 mm/hr 0.65 in16.5 mm
03:46 AM 65.3°F18.5°C 64.7°F18.2°C 98% Calm Calm 1.0 mph1.6 kmh 29.98 in1015.2 mb 0.31 in7.9 mm 0.60 in/hr15.2 mm/hr 0.65 in16.5 mm
03:45 AM 65.3°F18.5°C 64.7°F18.2°C 98% Calm Calm 1.0 mph1.6 kmh 29.98 in1015.2 mb 0.30 in7.6 mm 0.60 in/hr15.2 mm/hr 0.64 in16.3 mm
03:44 AM 65.3°F18.5°C 64.7°F18.2°C 98% Calm Calm 1.0 mph1.6 kmh 29.98 in1015.2 mb 0.29 in7.4 mm 0.60 in/hr15.2 mm/hr 0.63 in16.0 mm
03:43 AM 65.3°F18.5°C 64.4°F18.0°C 97% Calm Calm 1.0 mph1.6 kmh 29.98 in1015.2 mb 0.28 in7.1 mm 0.60 in/hr15.2 mm/hr 0.62 in15.7 mm
03:42 AM 65.2°F18.4°C 64.3°F17.9°C 97% Calm Calm 1.0 mph1.6 kmh 29.98 in1015.2 mb 0.27 in6.9 mm 0.00 in/hr0.0 mm/hr 0.61 in15.5 mm
03:41 AM 65.2°F18.4°C 64.3°F17.9°C 97% Calm Calm 1.0 mph1.6 kmh 29.98 in1015.2 mb 0.27 in6.9 mm 0.60 in/hr15.2 mm/hr 0.61 in15.5 mm
03:40 AM 65.2°F18.4°C 64.3°F17.9°C 97% Calm Calm -- 29.99 in1015.6 mb 0.26 in6.6 mm 0.00 in/hr0.0 mm/hr 0.60 in15.2 mm
03:39 AM 65.2°F18.4°C 64.3°F17.9°C 97% Calm Calm -- 29.99 in1015.6 mb 0.26 in6.6 mm 0.60 in/hr15.2 mm/hr 0.60 in15.2 mm
03:38 AM 65.2°F18.4°C 64.3°F17.9°C 97% Calm Calm -- 29.99 in1015.6 mb 0.25 in6.4 mm 0.00 in/hr0.0 mm/hr 0.59 in15.0 mm
03:37 AM 65.3°F18.5°C 64.4°F18.0°C 97% Calm Calm -- 29.99 in1015.6 mb 0.25 in6.4 mm 0.00 in/hr0.0 mm/hr 0.59 in15.0 mm
03:36 AM 65.3°F18.5°C 64.4°F18.0°C 97% Calm Calm -- 29.99 in1015.6 mb 0.25 in6.4 mm 0.00 in/hr0.0 mm/hr 0.59 in15.0 mm
03:35 AM 65.3°F18.5°C 64.4°F18.0°C 97% Calm Calm -- 29.99 in1015.6 mb 0.25 in6.4 mm 0.60 in/hr15.2 mm/hr 0.59 in15.0 mm
03:34 AM 65.3°F18.5°C 64.4°F18.0°C 97% Calm Calm -- 29.99 in1015.6 mb 0.24 in6.1 mm 0.00 in/hr0.0 mm/hr 0.58 in14.7 mm
03:33 AM 65.3°F18.5°C 64.4°F18.0°C 97% Calm Calm -- 29.99 in1015.6 mb 0.24 in6.1 mm 0.00 in/hr0.0 mm/hr 0.58 in14.7 mm
03:32 AM 65.3°F18.5°C 64.4°F18.0°C 97% Calm Calm -- 29.99 in1015.6 mb 0.24 in6.1 mm 0.00 in/hr0.0 mm/hr 0.58 in14.7 mm
03:31 AM 65.3°F18.5°C 64.4°F18.0°C 97% 1.0 mph SE1.6 kmh SE 3.0 mph4.8 kmh 29.99 in1015.6 mb 0.27 in6.9 mm 0.60 in/hr15.2 mm/hr 0.58 in14.7 mm
03:30 AM 65.4°F18.6°C 64.5°F18.1°C 97% Calm Calm 3.0 mph4.8 kmh 29.99 in1015.6 mb 0.26 in6.6 mm 0.00 in/hr0.0 mm/hr 0.57 in14.5 mm
03:29 AM 65.4°F18.6°C 64.5°F18.1°C 97% 1.0 mph SE1.6 kmh SE 3.0 mph4.8 kmh 29.99 in1015.6 mb 0.26 in6.6 mm 0.00 in/hr0.0 mm/hr 0.57 in14.5 mm
03:28 AM 65.4°F18.6°C 64.5°F18.1°C 97% Calm Calm 3.0 mph4.8 kmh 29.99 in1015.6 mb 0.26 in6.6 mm 0.00 in/hr0.0 mm/hr 0.57 in14.5 mm
03:27 AM 65.3°F18.5°C 64.4°F18.0°C 97% Calm Calm 3.0 mph4.8 kmh 29.99 in1015.6 mb 0.26 in6.6 mm 0.00 in/hr0.0 mm/hr 0.57 in14.5 mm
03:26 AM 65.4°F18.6°C 64.5°F18.1°C 97% Calm Calm 3.0 mph4.8 kmh 29.99 in1015.6 mb 0.26 in6.6 mm 0.00 in/hr0.0 mm/hr 0.57 in14.5 mm
03:25 AM 65.4°F18.6°C 64.8°F18.2°C 98% Calm Calm 3.0 mph4.8 kmh 29.99 in1015.6 mb 0.26 in6.6 mm 0.00 in/hr0.0 mm/hr 0.57 in14.5 mm
03:24 AM 65.4°F18.6°C 64.5°F18.1°C 97% Calm Calm 3.0 mph4.8 kmh 29.99 in1015.6 mb 0.26 in6.6 mm 0.00 in/hr0.0 mm/hr 0.57 in14.5 mm
03:23 AM 65.4°F18.6°C 64.5°F18.1°C 97% Calm Calm 3.0 mph4.8 kmh 29.99 in1015.6 mb 0.26 in6.6 mm 0.00 in/hr0.0 mm/hr 0.57 in14.5 mm
03:22 AM 65.4°F18.6°C 64.5°F18.1°C 97% 1.0 mph E1.6 kmh E 3.0 mph4.8 kmh 29.99 in1015.6 mb 0.26 in6.6 mm 0.00 in/hr0.0 mm/hr 0.57 in14.5 mm
03:21 AM 65.4°F18.6°C 64.5°F18.1°C 97% Calm Calm 3.0 mph4.8 kmh 29.99 in1015.6 mb 0.26 in6.6 mm 0.00 in/hr0.0 mm/hr 0.57 in14.5 mm
03:20 AM 65.3°F18.5°C 64.4°F18.0°C 97% 1.0 mph E1.6 kmh E 3.0 mph4.8 kmh 29.99 in1015.6 mb 0.26 in6.6 mm 0.00 in/hr0.0 mm/hr 0.57 in14.5 mm
03:19 AM 65.3°F18.5°C 64.4°F18.0°C 97% 1.0 mph E1.6 kmh E 3.0 mph4.8 kmh 29.99 in1015.6 mb 0.26 in6.6 mm 0.60 in/hr15.2 mm/hr 0.57 in14.5 mm
03:18 AM 65.3°F18.5°C 64.4°F18.0°C 97% Calm Calm 3.0 mph4.8 kmh 29.99 in1015.6 mb 0.25 in6.4 mm 0.00 in/hr0.0 mm/hr 0.56 in14.2 mm
03:17 AM 65.3°F18.5°C 64.4°F18.0°C 97% Calm Calm 3.0 mph4.8 kmh 29.99 in1015.6 mb 0.25 in6.4 mm 0.00 in/hr0.0 mm/hr 0.56 in14.2 mm
03:16 AM 65.3°F18.5°C 64.4°F18.0°C 97% 1.0 mph E1.6 kmh E 3.0 mph4.8 kmh 29.99 in1015.6 mb 0.25 in6.4 mm 0.00 in/hr0.0 mm/hr 0.56 in14.2 mm
03:15 AM 65.3°F18.5°C 64.4°F18.0°C 97% 1.0 mph E1.6 kmh E 3.0 mph4.8 kmh 29.99 in1015.6 mb 0.25 in6.4 mm 0.00 in/hr0.0 mm/hr 0.56 in14.2 mm
03:14 AM 65.3°F18.5°C 64.4°F18.0°C 97% Calm Calm 3.0 mph4.8 kmh 29.99 in1015.6 mb 0.25 in6.4 mm 0.00 in/hr0.0 mm/hr 0.56 in14.2 mm
03:13 AM 65.3°F18.5°C 64.4°F18.0°C 97% 1.0 mph ESE1.6 kmh ESE 3.0 mph4.8 kmh 29.99 in1015.6 mb 0.25 in6.4 mm 0.60 in/hr15.2 mm/hr 0.56 in14.2 mm
03:12 AM 65.3°F18.5°C 64.4°F18.0°C 97% 1.0 mph ESE1.6 kmh ESE 3.0 mph4.8 kmh 29.99 in1015.6 mb 0.24 in6.1 mm 0.00 in/hr0.0 mm/hr 0.55 in14.0 mm
03:11 AM 65.4°F18.6°C 64.5°F18.1°C 97% 1.0 mph E1.6 kmh E 3.0 mph4.8 kmh 29.99 in1015.6 mb 0.24 in6.1 mm 0.00 in/hr0.0 mm/hr 0.55 in14.0 mm
03:10 AM 65.3°F18.5°C 64.4°F18.0°C 97% Calm Calm 3.0 mph4.8 kmh 29.99 in1015.6 mb 0.24 in6.1 mm 0.60 in/hr15.2 mm/hr 0.55 in14.0 mm
03:09 AM 65.3°F18.5°C 64.4°F18.0°C 97% Calm Calm 3.0 mph4.8 kmh 30.00 in1015.9 mb 0.23 in5.8 mm 0.60 in/hr15.2 mm/hr 0.54 in13.7 mm
03:08 AM 65.3°F18.5°C 64.4°F18.0°C 97% 1.0 mph E1.6 kmh E 3.0 mph4.8 kmh 30.00 in1015.9 mb 0.22 in5.6 mm 0.00 in/hr0.0 mm/hr 0.53 in13.5 mm
03:07 AM 65.3°F18.5°C 64.4°F18.0°C 97% 2.0 mph E3.2 kmh E 3.0 mph4.8 kmh 30.00 in1015.9 mb 0.22 in5.6 mm 0.60 in/hr15.2 mm/hr 0.53 in13.5 mm
03:06 AM 65.3°F18.5°C 64.4°F18.0°C 97% 2.0 mph ESE3.2 kmh ESE 3.0 mph4.8 kmh 30.00 in1015.9 mb 0.21 in5.3 mm 0.30 in/hr7.6 mm/hr 0.52 in13.2 mm
03:04 AM 65.3°F18.5°C 64.4°F18.0°C 97% 1.0 mph SE1.6 kmh SE 3.0 mph4.8 kmh 30.00 in1015.9 mb 0.20 in5.1 mm 0.60 in/hr15.2 mm/hr 0.51 in13.0 mm
03:03 AM 65.3°F18.5°C 64.4°F18.0°C 97% 3.0 mph ESE4.8 kmh ESE 3.0 mph4.8 kmh 30.00 in1015.9 mb 0.19 in4.8 mm 0.60 in/hr15.2 mm/hr 0.50 in12.7 mm
03:02 AM 65.3°F18.5°C 64.4°F18.0°C 97% 2.0 mph ESE3.2 kmh ESE 2.0 mph3.2 kmh 30.00 in1015.9 mb 0.18 in4.6 mm 0.00 in/hr0.0 mm/hr 0.49 in12.4 mm
03:01 AM 65.3°F18.5°C 64.4°F18.0°C 97% Calm Calm 3.0 mph4.8 kmh 30.00 in1015.9 mb 0.48 in12.2 mm 0.60 in/hr15.2 mm/hr 0.49 in12.4 mm
03:00 AM 65.3°F18.5°C 64.4°F18.0°C 97% Calm Calm 3.0 mph4.8 kmh 30.00 in1015.9 mb 0.47 in11.9 mm 0.01 in/hr0.3 mm/hr 0.48 in12.2 mm
02:59 AM 65.3°F18.5°C 64.4°F18.0°C 97% 1.0 mph E1.6 kmh E 3.0 mph4.8 kmh 30.00 in1015.9 mb 0.46 in11.7 mm 0.00 in/hr0.0 mm/hr 0.47 in11.9 mm
02:58 AM 65.3°F18.5°C 64.4°F18.0°C 97% 1.0 mph ESE1.6 kmh ESE 3.0 mph4.8 kmh 30.00 in1015.9 mb 0.46 in11.7 mm 0.60 in/hr15.2 mm/hr 0.47 in11.9 mm
02:57 AM 65.4°F18.6°C 64.5°F18.1°C 97% 1.0 mph ESE1.6 kmh ESE 3.0 mph4.8 kmh 30.00 in1015.9 mb 0.45 in11.4 mm 0.60 in/hr15.2 mm/hr 0.46 in11.7 mm
02:56 AM 65.4°F18.6°C 64.5°F18.1°C 97% 1.0 mph ESE1.6 kmh ESE 3.0 mph4.8 kmh 30.00 in1015.9 mb 0.44 in11.2 mm 0.00 in/hr0.0 mm/hr 0.45 in11.4 mm
02:55 AM 65.5°F18.6°C 64.6°F18.1°C 97% 2.0 mph SE3.2 kmh SE 3.0 mph4.8 kmh 30.00 in1015.9 mb 0.44 in11.2 mm 0.60 in/hr15.2 mm/hr 0.45 in11.4 mm
02:54 AM 65.5°F18.6°C 64.6°F18.1°C 97% 1.0 mph SSE1.6 kmh SSE 2.0 mph3.2 kmh 30.00 in1015.9 mb 0.43 in10.9 mm 0.60 in/hr15.2 mm/hr 0.44 in11.2 mm
02:53 AM 65.5°F18.6°C 64.6°F18.1°C 97% Calm Calm 2.0 mph3.2 kmh 30.00 in1015.9 mb 0.42 in10.7 mm 0.60 in/hr15.2 mm/hr 0.43 in10.9 mm
02:52 AM 65.5°F18.6°C 64.6°F18.1°C 97% 1.0 mph ESE1.6 kmh ESE 2.0 mph3.2 kmh 30.00 in1015.9 mb 0.41 in10.4 mm 0.00 in/hr0.0 mm/hr 0.42 in10.7 mm
02:51 AM 65.6°F18.7°C 64.7°F18.2°C 97% 1.0 mph ESE1.6 kmh ESE 2.0 mph3.2 kmh 30.00 in1015.9 mb 0.41 in10.4 mm 0.60 in/hr15.2 mm/hr 0.42 in10.7 mm
02:50 AM 65.6°F18.7°C 64.7°F18.2°C 97% 2.0 mph ESE3.2 kmh ESE 2.0 mph3.2 kmh 30.00 in1015.9 mb 0.40 in10.2 mm 0.00 in/hr0.0 mm/hr 0.41 in10.4 mm
02:49 AM 65.5°F18.6°C 64.6°F18.1°C 97% 1.0 mph E1.6 kmh E 2.0 mph3.2 kmh 30.00 in1015.9 mb 0.40 in10.2 mm 0.60 in/hr15.2 mm/hr 0.41 in10.4 mm
02:48 AM 65.5°F18.6°C 64.6°F18.1°C 97% Calm Calm 2.0 mph3.2 kmh 30.00 in1015.9 mb 0.39 in9.9 mm 0.00 in/hr0.0 mm/hr 0.40 in10.2 mm
02:47 AM 65.5°F18.6°C 64.6°F18.1°C 97% Calm Calm 2.0 mph3.2 kmh 30.00 in1015.9 mb 0.39 in9.9 mm 0.00 in/hr0.0 mm/hr 0.40 in10.2 mm
02:46 AM 65.5°F18.6°C 64.6°F18.1°C 97% Calm Calm 2.0 mph3.2 kmh 30.00 in1015.9 mb 0.39 in9.9 mm 0.60 in/hr15.2 mm/hr 0.40 in10.2 mm
02:45 AM 65.5°F18.6°C 64.6°F18.1°C 97% Calm Calm 2.0 mph3.2 kmh 30.00 in1015.9 mb 0.38 in9.7 mm 0.00 in/hr0.0 mm/hr 0.39 in9.9 mm
02:44 AM 65.5°F18.6°C 64.6°F18.1°C 97% Calm Calm 2.0 mph3.2 kmh 30.00 in1015.9 mb 0.38 in9.7 mm 0.00 in/hr0.0 mm/hr 0.39 in9.9 mm
02:43 AM 65.6°F18.7°C 64.7°F18.2°C 97% Calm Calm 2.0 mph3.2 kmh 30.00 in1015.9 mb 0.38 in9.7 mm 0.00 in/hr0.0 mm/hr 0.39 in9.9 mm
02:42 AM 65.6°F18.7°C 64.7°F18.2°C 97% Calm Calm 2.0 mph3.2 kmh 30.00 in1015.9 mb 0.38 in9.7 mm 0.60 in/hr15.2 mm/hr 0.39 in9.9 mm
02:41 AM 65.7°F18.7°C 64.8°F18.2°C 97% 1.0 mph E1.6 kmh E 2.0 mph3.2 kmh 30.00 in1015.9 mb 0.37 in9.4 mm 0.00 in/hr0.0 mm/hr 0.38 in9.7 mm
02:40 AM 65.7°F18.7°C 64.5°F18.1°C 96% 1.0 mph E1.6 kmh E 2.0 mph3.2 kmh 30.00 in1015.9 mb 0.37 in9.4 mm 0.60 in/hr15.2 mm/hr 0.38 in9.7 mm
02:39 AM 65.8°F18.8°C 64.9°F18.3°C 97% Calm Calm 2.0 mph3.2 kmh 30.00 in1015.9 mb 0.36 in9.1 mm 0.00 in/hr0.0 mm/hr 0.37 in9.4 mm
02:38 AM 65.9°F18.8°C 65.0°F18.3°C 97% Calm Calm 2.0 mph3.2 kmh 30.00 in1015.9 mb 0.36 in9.1 mm 0.00 in/hr0.0 mm/hr 0.37 in9.4 mm
02:37 AM 65.9°F18.8°C 65.0°F18.3°C 97% Calm Calm 2.0 mph3.2 kmh 30.00 in1015.9 mb 0.36 in9.1 mm 0.60 in/hr15.2 mm/hr 0.37 in9.4 mm
02:36 AM 66.0°F18.9°C 65.1°F18.4°C 97% Calm Calm 2.0 mph3.2 kmh 30.00 in1015.9 mb 0.35 in8.9 mm 0.00 in/hr0.0 mm/hr 0.36 in9.1 mm
02:35 AM 66.0°F18.9°C 65.1°F18.4°C 97% Calm Calm 2.0 mph3.2 kmh 30.00 in1015.9 mb 0.35 in8.9 mm 0.00 in/hr0.0 mm/hr 0.36 in9.1 mm
02:34 AM 66.2°F19.0°C 65.3°F18.5°C 97% Calm Calm 2.0 mph3.2 kmh 30.00 in1015.9 mb 0.35 in8.9 mm 0.00 in/hr0.0 mm/hr 0.36 in9.1 mm
02:33 AM 66.3°F19.1°C 65.4°F18.6°C 97% 1.0 mph E1.6 kmh E 2.0 mph3.2 kmh 30.00 in1015.9 mb 0.35 in8.9 mm 0.60 in/hr15.2 mm/hr 0.36 in9.1 mm
02:32 AM 66.3°F19.1°C 65.4°F18.6°C 97% Calm Calm -- 30.00 in1015.9 mb 0.34 in8.6 mm 0.00 in/hr0.0 mm/hr 0.35 in8.9 mm
02:31 AM 66.3°F19.1°C 65.4°F18.6°C 97% Calm Calm 2.0 mph3.2 kmh 30.00 in1015.9 mb 0.35 in8.9 mm 0.00 in/hr0.0 mm/hr 0.35 in8.9 mm
02:30 AM 66.2°F19.0°C 65.3°F18.5°C 97% Calm Calm 2.0 mph3.2 kmh 30.00 in1015.9 mb 0.35 in8.9 mm 0.00 in/hr0.0 mm/hr 0.35 in8.9 mm
02:29 AM 66.2°F19.0°C 65.3°F18.5°C 97% Calm Calm 2.0 mph3.2 kmh 30.00 in1015.9 mb 0.35 in8.9 mm 0.60 in/hr15.2 mm/hr 0.35 in8.9 mm
02:28 AM 66.3°F19.1°C 65.1°F18.4°C 96% Calm Calm 2.0 mph3.2 kmh 30.00 in1015.9 mb 0.34 in8.6 mm 0.00 in/hr0.0 mm/hr 0.34 in8.6 mm
02:27 AM 66.2°F19.0°C 65.0°F18.3°C 96% Calm Calm 2.0 mph3.2 kmh 30.00 in1015.9 mb 0.34 in8.6 mm 0.60 in/hr15.2 mm/hr 0.34 in8.6 mm
02:26 AM 66.3°F19.1°C 65.1°F18.4°C 96% Calm Calm 2.0 mph3.2 kmh 30.00 in1015.9 mb 0.33 in8.4 mm 0.00 in/hr0.0 mm/hr 0.33 in8.4 mm
02:25 AM 66.4°F19.1°C 65.2°F18.4°C 96% Calm Calm 2.0 mph3.2 kmh 30.00 in1015.9 mb 0.33 in8.4 mm 0.00 in/hr0.0 mm/hr 0.33 in8.4 mm
02:24 AM 66.4°F19.1°C 65.5°F18.6°C 97% Calm Calm 2.0 mph3.2 kmh 30.00 in1015.9 mb 0.33 in8.4 mm 0.00 in/hr0.0 mm/hr 0.33 in8.4 mm
02:23 AM 66.5°F19.2°C 65.6°F18.7°C 97% Calm Calm 2.0 mph3.2 kmh 30.00 in1015.9 mb 0.33 in8.4 mm 0.00 in/hr0.0 mm/hr 0.33 in8.4 mm
02:22 AM 66.6°F19.2°C 65.7°F18.7°C 97% Calm Calm 2.0 mph3.2 kmh 30.00 in1015.9 mb 0.33 in8.4 mm 0.00 in/hr0.0 mm/hr 0.33 in8.4 mm
02:21 AM 66.6°F19.2°C 65.7°F18.7°C 97% Calm Calm 2.0 mph3.2 kmh 30.00 in1015.9 mb 0.33 in8.4 mm 0.00 in/hr0.0 mm/hr 0.33 in8.4 mm
02:20 AM 66.6°F19.2°C 65.4°F18.6°C 96% Calm Calm 2.0 mph3.2 kmh 30.00 in1015.9 mb 0.33 in8.4 mm 0.00 in/hr0.0 mm/hr 0.33 in8.4 mm
02:19 AM 66.6°F19.2°C 65.4°F18.6°C 96% Calm Calm 2.0 mph3.2 kmh 30.00 in1015.9 mb 0.33 in8.4 mm 0.00 in/hr0.0 mm/hr 0.33 in8.4 mm
02:18 AM 66.6°F19.2°C 65.4°F18.6°C 96% Calm Calm 2.0 mph3.2 kmh 30.00 in1015.9 mb 0.33 in8.4 mm 0.00 in/hr0.0 mm/hr 0.33 in8.4 mm
02:17 AM 66.6°F19.2°C 65.4°F18.6°C 96% Calm Calm 2.0 mph3.2 kmh 30.00 in1015.9 mb 0.33 in8.4 mm 0.00 in/hr0.0 mm/hr 0.33 in8.4 mm
02:16 AM 66.6°F19.2°C 65.4°F18.6°C 96% Calm Calm 2.0 mph3.2 kmh 30.00 in1015.9 mb 0.33 in8.4 mm 0.00 in/hr0.0 mm/hr 0.33 in8.4 mm
02:15 AM 66.6°F19.2°C 65.4°F18.6°C 96% Calm Calm 2.0 mph3.2 kmh 30.00 in1015.9 mb 0.33 in8.4 mm 0.00 in/hr0.0 mm/hr 0.33 in8.4 mm
02:14 AM 66.7°F19.3°C 65.5°F18.6°C 96% Calm Calm 2.0 mph3.2 kmh 30.00 in1015.9 mb 0.33 in8.4 mm 0.00 in/hr0.0 mm/hr 0.33 in8.4 mm
02:13 AM 66.7°F19.3°C 65.5°F18.6°C 96% Calm Calm 2.0 mph3.2 kmh 30.00 in1015.9 mb 0.33 in8.4 mm 0.00 in/hr0.0 mm/hr 0.33 in8.4 mm
02:12 AM 66.7°F19.3°C 65.5°F18.6°C 96% Calm Calm 2.0 mph3.2 kmh 30.00 in1015.9 mb 0.33 in8.4 mm 0.00 in/hr0.0 mm/hr 0.33 in8.4 mm
02:11 AM 66.8°F19.3°C 65.6°F18.7°C 96% Calm Calm 2.0 mph3.2 kmh 30.00 in1015.9 mb 0.33 in8.4 mm 0.00 in/hr0.0 mm/hr 0.33 in8.4 mm
02:10 AM 66.8°F19.3°C 65.6°F18.7°C 96% Calm Calm 2.0 mph3.2 kmh 29.99 in1015.6 mb 0.33 in8.4 mm 0.00 in/hr0.0 mm/hr 0.33 in8.4 mm
02:09 AM 66.9°F19.4°C 65.7°F18.7°C 96% Calm Calm 2.0 mph3.2 kmh 29.99 in1015.6 mb 0.33 in8.4 mm 0.00 in/hr0.0 mm/hr 0.33 in8.4 mm
02:08 AM 66.9°F19.4°C 65.7°F18.7°C 96% Calm Calm 2.0 mph3.2 kmh 29.99 in1015.6 mb 0.33 in8.4 mm 0.00 in/hr0.0 mm/hr 0.33 in8.4 mm
02:07 AM 66.9°F19.4°C 65.7°F18.7°C 96% Calm Calm 2.0 mph3.2 kmh 29.99 in1015.6 mb 0.33 in8.4 mm 0.00 in/hr0.0 mm/hr 0.33 in8.4 mm
02:06 AM 66.9°F19.4°C 65.7°F18.7°C 96% Calm Calm 2.0 mph3.2 kmh 30.00 in1015.9 mb 0.33 in8.4 mm 0.60 in/hr15.2 mm/hr 0.33 in8.4 mm
02:05 AM 66.9°F19.4°C 65.7°F18.7°C 96% Calm Calm 2.0 mph3.2 kmh 30.00 in1015.9 mb 0.32 in8.1 mm 0.00 in/hr0.0 mm/hr 0.32 in8.1 mm
02:04 AM 66.9°F19.4°C 65.7°F18.7°C 96% Calm Calm 2.0 mph3.2 kmh 30.00 in1015.9 mb 0.32 in8.1 mm 0.00 in/hr0.0 mm/hr 0.32 in8.1 mm
02:03 AM 66.9°F19.4°C 65.7°F18.7°C 96% 1.0 mph E1.6 kmh E 2.0 mph3.2 kmh 30.00 in1015.9 mb 0.32 in8.1 mm 0.00 in/hr0.0 mm/hr 0.32 in8.1 mm
02:02 AM 66.8°F19.3°C 65.3°F18.5°C 95% Calm Calm -- 30.00 in1015.9 mb 0.32 in8.1 mm 0.00 in/hr0.0 mm/hr 0.32 in8.1 mm
02:01 AM 66.8°F19.3°C 65.3°F18.5°C 95% 1.0 mph ESE1.6 kmh ESE 5.0 mph8.0 kmh 30.00 in1015.9 mb 0.32 in8.1 mm 0.00 in/hr0.0 mm/hr 0.32 in8.1 mm
02:00 AM 66.9°F19.4°C 65.4°F18.6°C 95% 1.0 mph E1.6 kmh E 5.0 mph8.0 kmh 30.00 in1015.9 mb 0.32 in8.1 mm 0.00 in/hr0.0 mm/hr 0.32 in8.1 mm
01:59 AM 66.9°F19.4°C 65.4°F18.6°C 95% 1.0 mph SE1.6 kmh SE 5.0 mph8.0 kmh 30.00 in1015.9 mb 0.32 in8.1 mm 0.00 in/hr0.0 mm/hr 0.32 in8.1 mm
01:58 AM 67.0°F19.4°C 65.5°F18.6°C 95% 1.0 mph SE1.6 kmh SE 5.0 mph8.0 kmh 30.00 in1015.9 mb 0.32 in8.1 mm 0.00 in/hr0.0 mm/hr 0.32 in8.1 mm
01:57 AM 67.1°F19.5°C 65.6°F18.7°C 95% 1.0 mph SE1.6 kmh SE 5.0 mph8.0 kmh 29.99 in1015.6 mb 0.32 in8.1 mm 0.00 in/hr0.0 mm/hr 0.32 in8.1 mm
01:56 AM 67.1°F19.5°C 65.6°F18.7°C 95% 1.0 mph SE1.6 kmh SE 5.0 mph8.0 kmh 29.99 in1015.6 mb 0.32 in8.1 mm 0.60 in/hr15.2 mm/hr 0.32 in8.1 mm
01:55 AM 67.1°F19.5°C 65.6°F18.7°C 95% 1.0 mph SE1.6 kmh SE 5.0 mph8.0 kmh 29.99 in1015.6 mb 0.31 in7.9 mm 0.00 in/hr0.0 mm/hr 0.31 in7.9 mm
01:54 AM 67.2°F19.6°C 65.7°F18.7°C 95% 1.0 mph SE1.6 kmh SE 5.0 mph8.0 kmh 29.99 in1015.6 mb 0.31 in7.9 mm 0.00 in/hr0.0 mm/hr 0.31 in7.9 mm
01:53 AM 67.2°F19.6°C 65.7°F18.7°C 95% 1.0 mph ESE1.6 kmh ESE 5.0 mph8.0 kmh 30.00 in1015.9 mb 0.31 in7.9 mm 0.00 in/hr0.0 mm/hr 0.31 in7.9 mm
01:52 AM 67.3°F19.6°C 65.8°F18.8°C 95% 2.0 mph ESE3.2 kmh ESE 5.0 mph8.0 kmh 30.00 in1015.9 mb 0.31 in7.9 mm 0.60 in/hr15.2 mm/hr 0.31 in7.9 mm
01:51 AM 67.3°F19.6°C 65.8°F18.8°C 95% 2.0 mph ESE3.2 kmh ESE 5.0 mph8.0 kmh 30.00 in1015.9 mb 0.30 in7.6 mm 0.00 in/hr0.0 mm/hr 0.30 in7.6 mm
01:50 AM 67.4°F19.7°C 65.9°F18.8°C 95% 2.0 mph SE3.2 kmh SE 5.0 mph8.0 kmh 30.00 in1015.9 mb 0.30 in7.6 mm 0.00 in/hr0.0 mm/hr 0.30 in7.6 mm
01:49 AM 67.4°F19.7°C 65.6°F18.7°C 94% 1.0 mph SE1.6 kmh SE 5.0 mph8.0 kmh 30.00 in1015.9 mb 0.30 in7.6 mm 0.60 in/hr15.2 mm/hr 0.30 in7.6 mm
01:48 AM 67.5°F19.7°C 65.7°F18.7°C 94% Calm Calm 5.0 mph8.0 kmh 30.00 in1015.9 mb 0.29 in7.4 mm 0.60 in/hr15.2 mm/hr 0.29 in7.4 mm
01:47 AM 67.6°F19.8°C 65.8°F18.8°C 94% Calm Calm 5.0 mph8.0 kmh 30.00 in1015.9 mb 0.28 in7.1 mm 0.00 in/hr0.0 mm/hr 0.28 in7.1 mm
01:46 AM 67.7°F19.8°C 65.9°F18.8°C 94% 1.0 mph SE1.6 kmh SE 5.0 mph8.0 kmh 30.00 in1015.9 mb 0.28 in7.1 mm 0.00 in/hr0.0 mm/hr 0.28 in7.1 mm
01:45 AM 67.7°F19.8°C 65.9°F18.8°C 94% 1.0 mph ESE1.6 kmh ESE 5.0 mph8.0 kmh 30.00 in1015.9 mb 0.28 in7.1 mm 0.60 in/hr15.2 mm/hr 0.28 in7.1 mm
01:44 AM 67.8°F19.9°C 66.0°F18.9°C 94% Calm Calm 5.0 mph8.0 kmh 30.00 in1015.9 mb 0.27 in6.9 mm 0.00 in/hr0.0 mm/hr 0.27 in6.9 mm
01:43 AM 67.9°F19.9°C 65.8°F18.8°C 93% Calm Calm 5.0 mph8.0 kmh 30.00 in1015.9 mb 0.27 in6.9 mm 0.60 in/hr15.2 mm/hr 0.27 in6.9 mm
01:42 AM 68.0°F20.0°C 65.9°F18.8°C 93% 1.0 mph ESE1.6 kmh ESE 5.0 mph8.0 kmh 30.00 in1015.9 mb 0.26 in6.6 mm 0.00 in/hr0.0 mm/hr 0.26 in6.6 mm
01:41 AM 68.2°F20.1°C 66.1°F18.9°C 93% Calm Calm 5.0 mph8.0 kmh 30.00 in1015.9 mb 0.26 in6.6 mm 0.60 in/hr15.2 mm/hr 0.26 in6.6 mm
01:40 AM 68.3°F20.2°C 66.2°F19.0°C 93% Calm Calm 5.0 mph8.0 kmh 30.00 in1015.9 mb 0.25 in6.4 mm 1.20 in/hr30.5 mm/hr 0.25 in6.4 mm
01:39 AM 68.5°F20.3°C 66.4°F19.1°C 93% 1.0 mph NE1.6 kmh NE 5.0 mph8.0 kmh 30.00 in1015.9 mb 0.23 in5.8 mm 1.20 in/hr30.5 mm/hr 0.23 in5.8 mm
01:38 AM 68.7°F20.4°C 66.3°F19.1°C 92% 1.0 mph E1.6 kmh E 5.0 mph8.0 kmh 30.00 in1015.9 mb 0.21 in5.3 mm 3.00 in/hr76.2 mm/hr 0.21 in5.3 mm
01:37 AM 68.9°F20.5°C 66.5°F19.2°C 92% 2.0 mph ESE3.2 kmh ESE 5.0 mph8.0 kmh 30.00 in1015.9 mb 0.16 in4.1 mm 3.00 in/hr76.2 mm/hr 0.16 in4.1 mm
01:36 AM 69.0°F20.6°C 66.6°F19.2°C 92% 3.0 mph ESE4.8 kmh ESE 5.0 mph8.0 kmh 30.00 in1015.9 mb 0.11 in2.8 mm 2.40 in/hr61.0 mm/hr 0.11 in2.8 mm
01:35 AM 69.2°F20.7°C 66.8°F19.3°C 92% 3.0 mph ESE4.8 kmh ESE 5.0 mph8.0 kmh 30.01 in1016.3 mb 0.07 in1.8 mm 0.60 in/hr15.2 mm/hr 0.07 in1.8 mm
01:34 AM 69.2°F20.7°C 66.8°F19.3°C 92% 5.0 mph ESE8.0 kmh ESE 5.0 mph8.0 kmh 30.01 in1016.3 mb 0.06 in1.5 mm 1.20 in/hr30.5 mm/hr 0.06 in1.5 mm
01:33 AM 69.3°F20.7°C 66.9°F19.4°C 92% 1.0 mph ESE1.6 kmh ESE 2.0 mph3.2 kmh 30.00 in1015.9 mb 0.04 in1.0 mm 1.20 in/hr30.5 mm/hr 0.04 in1.0 mm
01:32 AM 69.2°F20.7°C 66.2°F19.0°C 90% 1.0 mph E1.6 kmh E 1.0 mph1.6 kmh 30.00 in1015.9 mb 0.02 in0.5 mm 1.20 in/hr30.5 mm/hr 0.02 in0.5 mm
01:31 AM 69.2°F20.7°C 66.2°F19.0°C 90% 1.0 mph NE1.6 kmh NE 1.0 mph1.6 kmh 30.00 in1015.9 mb 0.00 in0.0 mm 0.00 in/hr0.0 mm/hr 0.00 in0.0 mm
01:30 AM 69.2°F20.7°C 66.2°F19.0°C 90% Calm Calm 1.0 mph1.6 kmh 30.00 in1015.9 mb 0.00 in0.0 mm 0.00 in/hr0.0 mm/hr 0.00 in0.0 mm
01:29 AM 69.1°F20.6°C 66.1°F18.9°C 90% Calm Calm 1.0 mph1.6 kmh 29.99 in1015.6 mb 0.00 in0.0 mm 0.00 in/hr0.0 mm/hr 0.00 in0.0 mm
01:28 AM 69.2°F20.7°C 66.2°F19.0°C 90% Calm Calm 1.0 mph1.6 kmh 29.99 in1015.6 mb 0.00 in0.0 mm 0.00 in/hr0.0 mm/hr 0.00 in0.0 mm
01:27 AM 69.2°F20.7°C 66.2°F19.0°C 90% Calm Calm 1.0 mph1.6 kmh 29.99 in1015.6 mb 0.00 in0.0 mm 0.00 in/hr0.0 mm/hr 0.00 in0.0 mm
01:26 AM 69.2°F20.7°C 65.8°F18.8°C 89% Calm Calm 1.0 mph1.6 kmh 29.99 in1015.6 mb 0.00 in0.0 mm 0.00 in/hr0.0 mm/hr 0.00 in0.0 mm
01:25 AM 69.2°F20.7°C 65.8°F18.8°C 89% 1.0 mph NNE1.6 kmh NNE 1.0 mph1.6 kmh 29.99 in1015.6 mb 0.00 in0.0 mm 0.00 in/hr0.0 mm/hr 0.00 in0.0 mm
01:24 AM 69.3°F20.7°C 65.9°F18.8°C 89% 1.0 mph NNE1.6 kmh NNE 1.0 mph1.6 kmh 29.99 in1015.6 mb 0.00 in0.0 mm 0.00 in/hr0.0 mm/hr 0.00 in0.0 mm
01:23 AM 69.3°F20.7°C 65.9°F18.8°C 89% Calm Calm 1.0 mph1.6 kmh 29.99 in1015.6 mb 0.00 in0.0 mm 0.00 in/hr0.0 mm/hr 0.00 in0.0 mm
01:22 AM 69.3°F20.7°C 65.9°F18.8°C 89% Calm Calm 1.0 mph1.6 kmh 30.00 in1015.9 mb 0.00 in0.0 mm 0.00 in/hr0.0 mm/hr 0.00 in0.0 mm
01:21 AM 69.3°F20.7°C 65.9°F18.8°C 89% Calm Calm 1.0 mph1.6 kmh 30.00 in1015.9 mb 0.00 in0.0 mm 0.00 in/hr0.0 mm/hr 0.00 in0.0 mm
01:20 AM 69.3°F20.7°C 65.9°F18.8°C 89% Calm Calm 1.0 mph1.6 kmh 30.00 in1015.9 mb 0.00 in0.0 mm 0.00 in/hr0.0 mm/hr 0.00 in0.0 mm
01:19 AM 69.3°F20.7°C 65.9°F18.8°C 89% Calm Calm 1.0 mph1.6 kmh 30.00 in1015.9 mb 0.00 in0.0 mm 0.00 in/hr0.0 mm/hr 0.00 in0.0 mm
01:18 AM 69.3°F20.7°C 65.9°F18.8°C 89% Calm Calm 1.0 mph1.6 kmh 29.99 in1015.6 mb 0.00 in0.0 mm 0.00 in/hr0.0 mm/hr 0.00 in0.0 mm
01:17 AM 69.4°F20.8°C 66.0°F18.9°C 89% Calm Calm 1.0 mph1.6 kmh 29.99 in1015.6 mb 0.00 in0.0 mm 0.00 in/hr0.0 mm/hr 0.00 in0.0 mm
01:16 AM 69.4°F20.8°C 66.0°F18.9°C 89% Calm Calm 1.0 mph1.6 kmh 29.99 in1015.6 mb 0.00 in0.0 mm 0.00 in/hr0.0 mm/hr 0.00 in0.0 mm
01:15 AM 69.4°F20.8°C 65.7°F18.7°C 88% Calm Calm 1.0 mph1.6 kmh 29.99 in1015.6 mb 0.00 in0.0 mm 0.00 in/hr0.0 mm/hr 0.00 in0.0 mm
01:14 AM 69.4°F20.8°C 65.7°F18.7°C 88% Calm Calm 1.0 mph1.6 kmh 29.99 in1015.6 mb 0.00 in0.0 mm 0.00 in/hr0.0 mm/hr 0.00 in0.0 mm
01:13 AM 69.4°F20.8°C 65.7°F18.7°C 88% Calm Calm 1.0 mph1.6 kmh 29.99 in1015.6 mb 0.00 in0.0 mm 0.00 in/hr0.0 mm/hr 0.00 in0.0 mm
01:12 AM 69.4°F20.8°C 65.7°F18.7°C 88% Calm Calm 1.0 mph1.6 kmh 29.99 in1015.6 mb 0.00 in0.0 mm 0.00 in/hr0.0 mm/hr 0.00 in0.0 mm
01:11 AM 69.4°F20.8°C 65.7°F18.7°C 88% 1.0 mph NNE1.6 kmh NNE 1.0 mph1.6 kmh 29.99 in1015.6 mb 0.00 in0.0 mm 0.00 in/hr0.0 mm/hr 0.00 in0.0 mm
01:10 AM 69.4°F20.8°C 65.7°F18.7°C 88% Calm Calm 1.0 mph1.6 kmh 29.99 in1015.6 mb 0.00 in0.0 mm 0.00 in/hr0.0 mm/hr 0.00 in0.0 mm
01:09 AM 69.4°F20.8°C 65.7°F18.7°C 88% Calm Calm 1.0 mph1.6 kmh 29.99 in1015.6 mb 0.00 in0.0 mm 0.00 in/hr0.0 mm/hr 0.00 in0.0 mm
01:08 AM 69.4°F20.8°C 65.7°F18.7°C 88% Calm Calm 1.0 mph1.6 kmh 29.99 in1015.6 mb 0.00 in0.0 mm 0.00 in/hr0.0 mm/hr 0.00 in0.0 mm
01:07 AM 69.4°F20.8°C 65.7°F18.7°C 88% Calm Calm 1.0 mph1.6 kmh 29.99 in1015.6 mb 0.00 in0.0 mm 0.00 in/hr0.0 mm/hr 0.00 in0.0 mm
01:06 AM 69.4°F20.8°C 65.7°F18.7°C 88% Calm Calm 1.0 mph1.6 kmh 29.99 in1015.6 mb 0.00 in0.0 mm 0.00 in/hr0.0 mm/hr 0.00 in0.0 mm
01:05 AM 69.4°F20.8°C 65.7°F18.7°C 88% 1.0 mph NNE1.6 kmh NNE 1.0 mph1.6 kmh 29.99 in1015.6 mb 0.00 in0.0 mm 0.00 in/hr0.0 mm/hr 0.00 in0.0 mm
01:04 AM 69.4°F20.8°C 65.7°F18.7°C 88% 1.0 mph NNE1.6 kmh NNE 1.0 mph1.6 kmh 29.99 in1015.6 mb 0.00 in0.0 mm 0.00 in/hr0.0 mm/hr 0.00 in0.0 mm
01:03 AM 69.4°F20.8°C 65.7°F18.7°C 88% 1.0 mph NNE1.6 kmh NNE 1.0 mph1.6 kmh 29.99 in1015.6 mb 0.00 in0.0 mm 0.00 in/hr0.0 mm/hr 0.00 in0.0 mm
01:02 AM 69.4°F20.8°C 65.7°F18.7°C 88% Calm Calm 1.0 mph1.6 kmh 29.99 in1015.6 mb 0.00 in0.0 mm 0.00 in/hr0.0 mm/hr 0.00 in0.0 mm
01:01 AM 69.5°F20.8°C 65.8°F18.8°C 88% Calm Calm 1.0 mph1.6 kmh 29.99 in1015.6 mb 0.00 in0.0 mm 0.00 in/hr0.0 mm/hr 0.00 in0.0 mm
01:00 AM 69.5°F20.8°C 65.8°F18.8°C 88% 1.0 mph NNE1.6 kmh NNE 1.0 mph1.6 kmh 29.99 in1015.6 mb 0.00 in0.0 mm 0.00 in/hr0.0 mm/hr 0.00 in0.0 mm
12:59 AM 69.5°F20.8°C 65.8°F18.8°C 88% 1.0 mph NNE1.6 kmh NNE 1.0 mph1.6 kmh 29.99 in1015.6 mb 0.00 in0.0 mm 0.00 in/hr0.0 mm/hr 0.00 in0.0 mm
12:58 AM 69.5°F20.8°C 65.8°F18.8°C 88% 1.0 mph NNE1.6 kmh NNE 1.0 mph1.6 kmh 29.99 in1015.6 mb 0.00 in0.0 mm 0.00 in/hr0.0 mm/hr 0.00 in0.0 mm
12:57 AM 69.6°F20.9°C 65.9°F18.8°C 88% Calm Calm 1.0 mph1.6 kmh 29.99 in1015.6 mb 0.00 in0.0 mm 0.00 in/hr0.0 mm/hr 0.00 in0.0 mm
12:56 AM 69.6°F20.9°C 65.9°F18.8°C 88% Calm Calm 1.0 mph1.6 kmh 29.99 in1015.6 mb 0.00 in0.0 mm 0.00 in/hr0.0 mm/hr 0.00 in0.0 mm
12:55 AM 69.6°F20.9°C 65.9°F18.8°C 88% Calm Calm 1.0 mph1.6 kmh 29.99 in1015.6 mb 0.00 in0.0 mm 0.00 in/hr0.0 mm/hr 0.00 in0.0 mm
12:54 AM 69.6°F20.9°C 65.6°F18.7°C 87% Calm Calm 1.0 mph1.6 kmh 29.99 in1015.6 mb 0.00 in0.0 mm 0.00 in/hr0.0 mm/hr 0.00 in0.0 mm
12:53 AM 69.6°F20.9°C 65.6°F18.7°C 87% Calm Calm 1.0 mph1.6 kmh 29.99 in1015.6 mb 0.00 in0.0 mm 0.00 in/hr0.0 mm/hr 0.00 in0.0 mm
12:52 AM 69.7°F20.9°C 65.7°F18.7°C 87% Calm Calm 1.0 mph1.6 kmh 29.99 in1015.6 mb 0.00 in0.0 mm 0.00 in/hr0.0 mm/hr 0.00 in0.0 mm
12:51 AM 69.7°F20.9°C 65.7°F18.7°C 87% Calm Calm 1.0 mph1.6 kmh 29.99 in1015.6 mb 0.00 in0.0 mm 0.00 in/hr0.0 mm/hr 0.00 in0.0 mm
12:50 AM 69.8°F21.0°C 65.8°F18.8°C 87% Calm Calm 1.0 mph1.6 kmh 29.99 in1015.6 mb 0.00 in0.0 mm 0.00 in/hr0.0 mm/hr 0.00 in0.0 mm
12:49 AM 69.8°F21.0°C 65.8°F18.8°C 87% Calm Calm 1.0 mph1.6 kmh 29.99 in1015.6 mb 0.00 in0.0 mm 0.00 in/hr0.0 mm/hr 0.00 in0.0 mm
12:48 AM 69.9°F21.1°C 65.9°F18.8°C 87% 1.0 mph NNE1.6 kmh NNE 1.0 mph1.6 kmh 29.99 in1015.6 mb 0.00 in0.0 mm 0.00 in/hr0.0 mm/hr 0.00 in0.0 mm
12:47 AM 69.9°F21.1°C 65.9°F18.8°C 87% 1.0 mph ESE1.6 kmh ESE 1.0 mph1.6 kmh 29.99 in1015.6 mb 0.00 in0.0 mm 0.00 in/hr0.0 mm/hr 0.00 in0.0 mm
12:46 AM 70.0°F21.1°C 65.6°F18.7°C 86% 1.0 mph ESE1.6 kmh ESE 1.0 mph1.6 kmh 30.00 in1015.9 mb 0.00 in0.0 mm 0.00 in/hr0.0 mm/hr 0.00 in0.0 mm
12:45 AM 70.1°F21.2°C 65.7°F18.7°C 86% Calm Calm -- 30.00 in1015.9 mb 0.00 in0.0 mm 0.00 in/hr0.0 mm/hr 0.00 in0.0 mm
12:44 AM 70.1°F21.2°C 65.7°F18.7°C 86% Calm Calm -- 30.00 in1015.9 mb 0.00 in0.0 mm 0.00 in/hr0.0 mm/hr 0.00 in0.0 mm
12:43 AM 70.1°F21.2°C 65.7°F18.7°C 86% Calm Calm -- 30.00 in1015.9 mb 0.00 in0.0 mm 0.00 in/hr0.0 mm/hr 0.00 in0.0 mm
12:42 AM 70.2°F21.2°C 65.8°F18.8°C 86% Calm Calm -- 29.99 in1015.6 mb 0.00 in0.0 mm 0.00 in/hr0.0 mm/hr 0.00 in0.0 mm
12:41 AM 70.2°F21.2°C 65.8°F18.8°C 86% Calm Calm -- 29.99 in1015.6 mb 0.00 in0.0 mm 0.00 in/hr0.0 mm/hr 0.00 in0.0 mm
12:40 AM 70.2°F21.2°C 65.5°F18.6°C 85% Calm Calm -- 29.99 in1015.6 mb 0.00 in0.0 mm 0.00 in/hr0.0 mm/hr 0.00 in0.0 mm
12:39 AM 70.3°F21.3°C 65.6°F18.7°C 85% Calm Calm -- 29.99 in1015.6 mb 0.00 in0.0 mm 0.00 in/hr0.0 mm/hr 0.00 in0.0 mm
12:38 AM 70.3°F21.3°C 65.6°F18.7°C 85% Calm Calm -- 29.99 in1015.6 mb 0.00 in0.0 mm 0.00 in/hr0.0 mm/hr 0.00 in0.0 mm
12:37 AM 70.3°F21.3°C 65.6°F18.7°C 85% Calm Calm -- 30.00 in1015.9 mb 0.00 in0.0 mm 0.00 in/hr0.0 mm/hr 0.00 in0.0 mm
12:36 AM 70.4°F21.3°C 65.7°F18.7°C 85% Calm Calm -- 30.00 in1015.9 mb 0.00 in0.0 mm 0.00 in/hr0.0 mm/hr 0.00 in0.0 mm
12:35 AM 70.4°F21.3°C 65.7°F18.7°C 85% Calm Calm -- 30.00 in1015.9 mb 0.00 in0.0 mm 0.00 in/hr0.0 mm/hr 0.00 in0.0 mm
12:34 AM 70.4°F21.3°C 65.7°F18.7°C 85% Calm Calm -- 30.00 in1015.9 mb 0.00 in0.0 mm 0.00 in/hr0.0 mm/hr 0.00 in0.0 mm
12:33 AM 70.5°F21.4°C 65.8°F18.8°C 85% Calm Calm -- 29.99 in1015.6 mb 0.00 in0.0 mm 0.00 in/hr0.0 mm/hr 0.00 in0.0 mm
12:32 AM 70.5°F21.4°C 65.8°F18.8°C 85% Calm Calm -- 29.99 in1015.6 mb 0.00 in0.0 mm 0.00 in/hr0.0 mm/hr 0.00 in0.0 mm
12:31 AM 70.6°F21.4°C 65.9°F18.8°C 85% Calm Calm 5.0 mph8.0 kmh 30.00 in1015.9 mb 0.00 in0.0 mm 0.00 in/hr0.0 mm/hr 0.00 in0.0 mm
12:30 AM 70.6°F21.4°C 65.9°F18.8°C 85% Calm Calm 5.0 mph8.0 kmh 30.00 in1015.9 mb 0.00 in0.0 mm 0.00 in/hr0.0 mm/hr 0.00 in0.0 mm
12:29 AM 70.6°F21.4°C 65.9°F18.8°C 85% Calm Calm 5.0 mph8.0 kmh 30.00 in1015.9 mb 0.00 in0.0 mm 0.00 in/hr0.0 mm/hr 0.00 in0.0 mm
12:28 AM 70.6°F21.4°C 65.9°F18.8°C 85% Calm Calm 5.0 mph8.0 kmh 30.00 in1015.9 mb 0.00 in0.0 mm 0.00 in/hr0.0 mm/hr 0.00 in0.0 mm
12:27 AM 70.6°F21.4°C 65.9°F18.8°C 85% Calm Calm 5.0 mph8.0 kmh 30.00 in1015.9 mb 0.00 in0.0 mm 0.00 in/hr0.0 mm/hr 0.00 in0.0 mm
12:26 AM 70.6°F21.4°C 65.9°F18.8°C 85% Calm Calm 5.0 mph8.0 kmh 30.00 in1015.9 mb 0.00 in0.0 mm 0.00 in/hr0.0 mm/hr 0.00 in0.0 mm
12:25 AM 70.6°F21.4°C 65.9°F18.8°C 85% Calm Calm 5.0 mph8.0 kmh 30.00 in1015.9 mb 0.00 in0.0 mm 0.00 in/hr0.0 mm/hr 0.00 in0.0 mm
12:24 AM 70.6°F21.4°C 65.9°F18.8°C 85% Calm Calm 5.0 mph8.0 kmh 30.00 in1015.9 mb 0.00 in0.0 mm 0.00 in/hr0.0 mm/hr 0.00 in0.0 mm
12:23 AM 70.6°F21.4°C 65.9°F18.8°C 85% Calm Calm 5.0 mph8.0 kmh 30.00 in1015.9 mb 0.00 in0.0 mm 0.00 in/hr0.0 mm/hr 0.00 in0.0 mm
12:22 AM 70.6°F21.4°C 65.9°F18.8°C 85% Calm Calm 5.0 mph8.0 kmh 30.00 in1015.9 mb 0.00 in0.0 mm 0.00 in/hr0.0 mm/hr 0.00 in0.0 mm
12:21 AM 70.6°F21.4°C 65.9°F18.8°C 85% Calm Calm 5.0 mph8.0 kmh 30.00 in1015.9 mb 0.00 in0.0 mm 0.00 in/hr0.0 mm/hr 0.00 in0.0 mm
12:20 AM 70.6°F21.4°C 65.9°F18.8°C 85% Calm Calm 5.0 mph8.0 kmh 30.00 in1015.9 mb 0.00 in0.0 mm 0.00 in/hr0.0 mm/hr 0.00 in0.0 mm
12:19 AM 70.5°F21.4°C 65.8°F18.8°C 85% 1.0 mph ESE1.6 kmh ESE 5.0 mph8.0 kmh 30.00 in1015.9 mb 0.00 in0.0 mm 0.00 in/hr0.0 mm/hr 0.00 in0.0 mm
12:18 AM 70.5°F21.4°C 65.8°F18.8°C 85% 2.0 mph ESE3.2 kmh ESE 5.0 mph8.0 kmh 30.00 in1015.9 mb 0.00 in0.0 mm 0.00 in/hr0.0 mm/hr 0.00 in0.0 mm
12:16 AM 70.4°F21.3°C 65.7°F18.7°C 85% 1.0 mph SE1.6 kmh SE 5.0 mph8.0 kmh 30.00 in1015.9 mb 0.00 in0.0 mm 0.00 in/hr0.0 mm/hr 0.00 in0.0 mm
12:15 AM 70.3°F21.3°C 65.6°F18.7°C 85% 1.0 mph ENE1.6 kmh ENE 5.0 mph8.0 kmh 30.00 in1015.9 mb 0.00 in0.0 mm 0.00 in/hr0.0 mm/hr 0.00 in0.0 mm
12:13 AM 70.2°F21.2°C 65.8°F18.8°C 86% 2.0 mph E3.2 kmh E 5.0 mph8.0 kmh 30.00 in1015.9 mb 0.00 in0.0 mm 0.00 in/hr0.0 mm/hr 0.00 in0.0 mm
12:12 AM 70.1°F21.2°C 65.7°F18.7°C 86% Calm Calm 5.0 mph8.0 kmh 30.00 in1015.9 mb 0.00 in0.0 mm 0.00 in/hr0.0 mm/hr 0.00 in0.0 mm
12:11 AM 70.0°F21.1°C 65.6°F18.7°C 86% Calm Calm 5.0 mph8.0 kmh 30.00 in1015.9 mb 0.00 in0.0 mm 0.00 in/hr0.0 mm/hr 0.00 in0.0 mm
12:10 AM 69.9°F21.1°C 65.9°F18.8°C 87% 3.0 mph ESE4.8 kmh ESE 5.0 mph8.0 kmh 30.00 in1015.9 mb 0.00 in0.0 mm 0.00 in/hr0.0 mm/hr 0.00 in0.0 mm
12:09 AM 69.8°F21.0°C 65.8°F18.8°C 87% 2.0 mph SE3.2 kmh SE 5.0 mph8.0 kmh 30.00 in1015.9 mb 0.00 in0.0 mm 0.00 in/hr0.0 mm/hr 0.00 in0.0 mm
12:08 AM 69.7°F20.9°C 65.7°F18.7°C 87% 1.0 mph ESE1.6 kmh ESE 5.0 mph8.0 kmh 30.00 in1015.9 mb 0.00 in0.0 mm 0.00 in/hr0.0 mm/hr 0.00 in0.0 mm
12:07 AM 69.6°F20.9°C 65.6°F18.7°C 87% 1.0 mph ESE1.6 kmh ESE 5.0 mph8.0 kmh 30.00 in1015.9 mb 0.00 in0.0 mm 0.00 in/hr0.0 mm/hr 0.00 in0.0 mm
12:06 AM 69.5°F20.8°C 65.5°F18.6°C 87% 1.0 mph ESE1.6 kmh ESE 5.0 mph8.0 kmh 29.99 in1015.6 mb 0.00 in0.0 mm 0.00 in/hr0.0 mm/hr 0.00 in0.0 mm
12:05 AM 69.4°F20.8°C 65.4°F18.6°C 87% 2.0 mph ESE3.2 kmh ESE 5.0 mph8.0 kmh 30.00 in1015.9 mb 0.00 in0.0 mm 0.00 in/hr0.0 mm/hr 0.00 in0.0 mm
12:04 AM 69.4°F20.8°C 65.7°F18.7°C 88% 2.0 mph SE3.2 kmh SE 2.0 mph3.2 kmh 30.00 in1015.9 mb 0.00 in0.0 mm 0.00 in/hr0.0 mm/hr 0.00 in0.0 mm
12:03 AM 69.3°F20.7°C 65.3°F18.5°C 87% Calm Calm -- 30.00 in1015.9 mb 0.00 in0.0 mm 0.00 in/hr0.0 mm/hr 0.00 in0.0 mm
12:02 AM 69.3°F20.7°C 65.3°F18.5°C 87% Calm Calm -- 30.00 in1015.9 mb 0.00 in0.0 mm 0.00 in/hr0.0 mm/hr 0.00 in0.0 mm
12:01 AM 69.3°F20.7°C 65.6°F18.7°C 88% Calm Calm 2.0 mph3.2 kmh 30.00 in1015.9 mb 0.00 in0.0 mm 0.00 in/hr0.0 mm/hr 0.00 in0.0 mm
12:00 AM 69.2°F20.7°C 65.5°F18.6°C 88% Calm Calm 2.0 mph3.2 kmh 29.99 in1015.6 mb 0.00 in0.0 mm 0.00 in/hr0.0 mm/hr 0.00 in0.0 mm